createdAt,value
2022-11-10T00:04:25.539Z,3.00
2022-11-10T00:09:25.448Z,3.20
2022-11-10T00:14:25.376Z,2.60
2022-11-10T00:19:25.320Z,2.80
2022-11-10T00:24:25.269Z,3.20
2022-11-10T00:29:25.221Z,3.00
2022-11-10T00:34:25.139Z,2.70
2022-11-10T00:39:25.069Z,2.70
2022-11-10T00:44:25.012Z,2.60
2022-11-10T00:49:24.948Z,2.50
2022-11-10T00:54:24.904Z,3.00
2022-11-10T00:59:24.820Z,2.80
2022-11-10T01:04:24.770Z,2.60
2022-11-10T01:09:24.703Z,2.30
2022-11-10T01:14:24.632Z,2.40
2022-11-10T01:19:24.604Z,2.70
2022-11-10T01:24:24.520Z,2.80
2022-11-10T01:29:24.453Z,2.40
2022-11-10T01:34:24.392Z,2.60
2022-11-10T01:39:24.338Z,2.50
2022-11-10T01:44:24.284Z,2.30
2022-11-10T01:49:24.202Z,2.30
2022-11-10T01:54:24.135Z,2.20
2022-11-10T01:59:24.084Z,2.00
2022-11-10T02:04:24.024Z,2.40
2022-11-10T02:09:23.956Z,2.30
2022-11-10T02:14:23.914Z,2.30
2022-11-10T02:19:23.831Z,2.40
2022-11-10T02:24:23.775Z,3.20
2022-11-10T02:29:23.723Z,2.30
2022-11-10T02:34:23.656Z,2.30
2022-11-10T02:39:23.586Z,2.20
2022-11-10T02:44:23.531Z,2.10
2022-11-10T02:49:23.467Z,3.00
2022-11-10T02:54:23.418Z,2.30
2022-11-10T02:59:23.346Z,2.30
2022-11-10T03:04:23.278Z,2.20
2022-11-10T03:09:23.228Z,2.70
2022-11-10T03:14:23.162Z,2.40
2022-11-10T03:19:23.098Z,2.20
2022-11-10T03:24:23.038Z,2.10
2022-11-10T03:29:22.979Z,2.40
2022-11-10T03:34:22.950Z,2.50
2022-11-10T03:39:22.851Z,2.10
2022-11-10T03:44:22.789Z,2.20
2022-11-10T03:49:22.712Z,2.30
2022-11-10T03:54:22.662Z,2.40
2022-11-10T03:59:22.581Z,2.20
2022-11-10T04:04:22.539Z,2.40
2022-11-10T04:09:22.472Z,1.90
2022-11-10T04:14:22.434Z,2.40
2022-11-10T04:19:22.349Z,2.30
2022-11-10T04:24:22.291Z,2.60
2022-11-10T04:29:22.224Z,2.30
2022-11-10T04:34:22.176Z,2.10
2022-11-10T04:39:22.083Z,2.10
2022-11-10T04:44:22.060Z,2.60
2022-11-10T04:49:21.983Z,2.10
2022-11-10T04:54:21.911Z,2.60
2022-11-10T04:59:21.846Z,3.40
2022-11-10T05:04:21.795Z,3.40
2022-11-10T05:09:21.749Z,3.30
2022-11-10T05:14:21.667Z,3.30
2022-11-10T05:19:21.633Z,2.50
2022-11-10T05:24:21.542Z,2.80
2022-11-10T05:29:21.480Z,2.80
2022-11-10T05:34:21.446Z,2.80
2022-11-10T05:39:21.352Z,2.60
2022-11-10T05:44:21.287Z,2.90
2022-11-10T05:49:21.229Z,2.10
2022-11-10T05:54:21.160Z,2.30
2022-11-10T05:59:21.128Z,2.60
2022-11-10T06:04:21.059Z,2.40
2022-11-10T06:09:20.997Z,2.40
2022-11-10T06:14:20.902Z,2.80
2022-11-10T06:19:20.861Z,2.20
2022-11-10T06:24:20.791Z,2.40
2022-11-10T06:29:26.459Z,3.30
2022-11-10T06:34:21.669Z,2.90
2022-11-10T06:39:20.612Z,3.20
2022-11-10T06:44:20.540Z,3.00
2022-11-10T06:49:20.473Z,2.80
2022-11-10T06:54:20.415Z,2.90
2022-11-10T06:59:20.382Z,2.70
2022-11-10T07:04:20.958Z,2.50
2022-11-10T07:09:20.235Z,3.10
2022-11-10T07:14:20.167Z,2.60
2022-11-10T07:19:20.116Z,2.50
2022-11-10T07:24:20.043Z,1.80
2022-11-10T07:29:19.960Z,1.60
2022-11-10T07:34:19.938Z,1.70
2022-11-10T07:39:19.849Z,2.00
2022-11-10T07:44:19.773Z,1.90
2022-11-10T07:49:19.703Z,2.10
2022-11-10T07:54:19.629Z,2.00
2022-11-10T07:59:19.596Z,2.70
2022-11-10T08:04:19.513Z,2.30
2022-11-10T08:09:19.447Z,2.50
2022-11-10T08:14:19.372Z,2.60
2022-11-10T08:19:19.326Z,2.40
2022-11-10T08:24:19.244Z,2.70
2022-11-10T08:29:19.198Z,2.30
2022-11-10T08:34:19.127Z,2.60
2022-11-10T08:39:37.618Z,3.10
2022-11-10T08:44:20.952Z,2.70
2022-11-10T08:49:18.954Z,2.30
2022-11-10T08:54:18.879Z,2.90
2022-11-10T08:59:18.817Z,2.00
2022-11-10T09:04:18.897Z,2.20
2022-11-10T09:09:18.717Z,2.10
2022-11-10T09:14:18.630Z,2.30
2022-11-10T09:19:20.051Z,1.90
2022-11-10T09:24:18.519Z,2.00
2022-11-10T09:29:18.442Z,2.40
2022-11-10T09:34:18.378Z,2.20
2022-11-10T09:39:18.322Z,2.60
2022-11-10T09:44:18.275Z,2.20
2022-11-10T09:49:18.202Z,1.80
2022-11-10T09:54:18.122Z,1.60
2022-11-10T09:59:18.082Z,1.80
2022-11-10T10:04:18.022Z,1.50
2022-11-10T10:09:17.948Z,1.70
2022-11-10T10:14:17.887Z,1.80
2022-11-10T10:19:17.832Z,1.80
2022-11-10T10:24:21.808Z,1.90
2022-11-10T10:29:17.737Z,1.70
2022-11-10T10:34:17.712Z,1.40
2022-11-10T10:39:17.621Z,1.30
2022-11-10T10:44:17.548Z,1.50
2022-11-10T10:49:32.714Z,1.60
2022-11-10T10:54:18.439Z,1.60
2022-11-10T10:59:17.328Z,1.90
2022-11-10T11:04:17.259Z,1.30
2022-11-10T11:09:17.203Z,1.30
2022-11-10T11:14:17.132Z,1.30
2022-11-10T11:19:17.081Z,1.20
2022-11-10T11:24:17.019Z,1.10
2022-11-10T11:29:16.968Z,1.30
2022-11-10T11:34:16.891Z,1.10
2022-11-10T11:39:16.839Z,0.90
2022-11-10T11:44:16.744Z,1.20
2022-11-10T11:49:16.691Z,1.10
2022-11-10T11:54:16.623Z,1.40
2022-11-10T11:59:16.564Z,1.40
2022-11-10T12:04:16.504Z,1.50
2022-11-10T12:09:16.450Z,1.70
2022-11-10T12:14:16.375Z,1.10
2022-11-10T12:19:16.319Z,1.20
2022-11-10T12:24:16.251Z,1.20
2022-11-10T12:29:16.194Z,1.00
2022-11-10T12:34:16.134Z,1.00
2022-11-10T12:39:16.066Z,1.00
2022-11-10T12:44:16.007Z,0.90
2022-11-10T12:49:15.949Z,0.90
2022-11-10T12:54:16.965Z,1.20
2022-11-10T12:59:15.838Z,0.50
2022-11-10T13:04:15.766Z,1.10
2022-11-10T13:09:15.719Z,0.60
2022-11-10T13:14:15.639Z,0.80
2022-11-10T13:19:15.589Z,0.60
2022-11-10T13:24:15.530Z,0.80
2022-11-10T13:29:15.472Z,0.90
2022-11-10T13:34:15.402Z,0.90
2022-11-10T13:39:15.344Z,0.90
2022-11-10T13:44:15.272Z,0.90
2022-11-10T13:49:15.862Z,1.00
2022-11-10T13:54:15.144Z,0.60
2022-11-10T13:59:15.109Z,0.70
2022-11-10T14:04:15.057Z,0.60
2022-11-10T14:09:14.985Z,0.90
2022-11-10T14:14:14.924Z,0.50
2022-11-10T14:19:14.848Z,1.10
2022-11-10T14:24:14.767Z,1.10
2022-11-10T14:29:14.718Z,1.10
2022-11-10T14:34:14.648Z,1.00
2022-11-10T14:39:14.592Z,1.20
2022-11-10T14:44:14.520Z,1.00
2022-11-10T14:49:14.504Z,1.30
2022-11-10T14:54:14.408Z,1.60
2022-11-10T14:59:14.352Z,1.10
2022-11-10T15:04:14.283Z,1.20
2022-11-10T15:09:15.045Z,1.70
2022-11-10T15:14:14.173Z,1.20
2022-11-10T15:19:14.104Z,1.40
2022-11-10T15:24:14.049Z,1.10
2022-11-10T15:29:14.007Z,1.20
2022-11-10T15:34:13.926Z,1.30
2022-11-10T15:39:13.917Z,1.20
2022-11-10T15:44:13.837Z,1.30
2022-11-10T15:49:13.762Z,1.70
2022-11-10T15:54:13.677Z,1.40
2022-11-10T15:59:13.612Z,1.80
2022-11-10T16:04:13.554Z,1.80
2022-11-10T16:09:13.498Z,3.10
2022-11-10T16:14:13.440Z,3.40
2022-11-10T16:19:13.360Z,2.00
2022-11-10T16:24:13.322Z,1.80
2022-11-10T16:29:13.260Z,1.90
2022-11-10T16:34:13.219Z,2.60
2022-11-10T16:39:13.137Z,2.70
2022-11-10T16:44:13.053Z,2.90
2022-11-10T16:49:12.994Z,3.10
2022-11-10T16:54:12.941Z,2.30
2022-11-10T16:59:12.878Z,2.10
2022-11-10T17:04:12.825Z,1.80
2022-11-10T17:09:12.745Z,1.50
2022-11-10T17:14:12.678Z,2.60
2022-11-10T17:19:12.624Z,3.00
2022-11-10T17:24:12.553Z,3.20
2022-11-10T17:29:12.490Z,4.20
2022-11-10T17:34:12.427Z,4.00
2022-11-10T17:39:12.386Z,5.40
2022-11-10T17:44:12.312Z,9.30
2022-11-10T17:49:12.263Z,6.20
2022-11-10T17:54:12.201Z,5.80
2022-11-10T17:59:12.120Z,6.10
2022-11-10T18:04:12.055Z,5.90
2022-11-10T18:09:11.998Z,5.60
2022-11-10T18:14:11.927Z,5.60
2022-11-10T18:19:11.898Z,5.10
2022-11-10T18:24:11.811Z,3.50
2022-11-10T18:29:11.751Z,2.50
2022-11-10T18:34:11.689Z,3.80
2022-11-10T18:39:11.630Z,4.20
2022-11-10T18:44:11.559Z,2.70
2022-11-10T18:49:11.498Z,1.80
2022-11-10T18:54:11.426Z,2.20
2022-11-10T18:59:11.359Z,2.60
2022-11-10T19:04:11.279Z,2.80
2022-11-10T19:09:11.231Z,2.60
2022-11-10T19:14:11.181Z,2.50
2022-11-10T19:19:11.089Z,3.50
2022-11-10T19:24:11.001Z,3.90
2022-11-10T19:29:10.960Z,4.00
2022-11-10T19:34:10.888Z,3.20
2022-11-10T19:39:10.820Z,3.00
2022-11-10T19:44:10.774Z,3.10
2022-11-10T19:49:10.680Z,3.30
2022-11-10T19:54:10.634Z,3.80
2022-11-10T19:59:10.540Z,3.50
2022-11-10T20:04:10.470Z,3.40
2022-11-10T20:09:10.403Z,5.00
2022-11-10T20:14:10.336Z,4.70
2022-11-10T20:19:10.282Z,2.50
2022-11-10T20:24:10.202Z,2.20
2022-11-10T20:29:10.131Z,2.60
2022-11-10T20:34:10.083Z,2.10
2022-11-10T20:39:10.033Z,2.40
2022-11-10T20:44:09.953Z,3.20
2022-11-10T20:49:09.907Z,2.90
2022-11-10T20:54:09.860Z,3.40
2022-11-10T20:59:09.793Z,3.40
2022-11-10T21:04:09.720Z,5.10
2022-11-10T21:09:09.653Z,6.00
2022-11-10T21:14:09.585Z,4.60
2022-11-10T21:19:09.559Z,7.00
2022-11-10T21:24:09.537Z,6.60
2022-11-10T21:29:09.402Z,6.60
2022-11-10T21:34:09.344Z,5.90
2022-11-10T21:39:09.312Z,4.90
2022-11-10T21:44:09.228Z,4.70
2022-11-10T21:49:09.187Z,4.50
2022-11-10T21:54:09.080Z,3.80
2022-11-10T21:59:09.044Z,2.90
2022-11-10T22:04:08.970Z,2.80
2022-11-10T22:09:08.952Z,2.20
2022-11-10T22:14:08.840Z,2.10
2022-11-10T22:19:08.811Z,2.40
2022-11-10T22:24:08.722Z,2.30
2022-11-10T22:29:08.679Z,1.90
2022-11-10T22:34:08.652Z,2.10
2022-11-10T22:39:08.577Z,1.90
2022-11-10T22:44:08.511Z,2.20
2022-11-10T22:49:08.463Z,1.80
2022-11-10T22:54:08.407Z,1.90
2022-11-10T22:59:08.332Z,2.70
2022-11-10T23:04:08.292Z,2.40
2022-11-10T23:09:08.229Z,2.20
2022-11-10T23:14:08.171Z,2.50
2022-11-10T23:19:08.131Z,2.10
2022-11-10T23:24:08.068Z,2.30
2022-11-10T23:29:08.013Z,2.30
2022-11-10T23:34:07.951Z,2.30
2022-11-10T23:39:07.903Z,2.00
2022-11-10T23:44:07.850Z,2.10
2022-11-10T23:49:07.801Z,2.30
2022-11-10T23:54:07.758Z,1.80
2022-11-10T23:59:07.700Z,2.40
